sensor_id;sensor_type;location;lat;lon;timestamp;temperature;humidity
11764;DHT22;5939;56.522;14.950;2023-05-16T00:00:56;16.50;94.70
11764;DHT22;5939;56.522;14.950;2023-05-16T00:03:22;16.50;94.80
11764;DHT22;5939;56.522;14.950;2023-05-16T00:05:48;16.50;94.70
11764;DHT22;5939;56.522;14.950;2023-05-16T00:08:15;16.40;94.80
11764;DHT22;5939;56.522;14.950;2023-05-16T00:10:41;16.40;94.80
11764;DHT22;5939;56.522;14.950;2023-05-16T00:13:06;16.40;94.90
11764;DHT22;5939;56.522;14.950;2023-05-16T00:15:32;16.40;94.90
11764;DHT22;5939;56.522;14.950;2023-05-16T00:17:58;16.40;94.80
11764;DHT22;5939;56.522;14.950;2023-05-16T00:20:27;16.40;94.90
11764;DHT22;5939;56.522;14.950;2023-05-16T00:22:53;16.30;94.90
11764;DHT22;5939;56.522;14.950;2023-05-16T00:25:20;16.30;94.90
11764;DHT22;5939;56.522;14.950;2023-05-16T00:27:46;16.30;94.90
11764;DHT22;5939;56.522;14.950;2023-05-16T00:30:11;16.30;94.90
11764;DHT22;5939;56.522;14.950;2023-05-16T00:32:37;16.30;94.90
11764;DHT22;5939;56.522;14.950;2023-05-16T00:35:04;16.30;94.90
11764;DHT22;5939;56.522;14.950;2023-05-16T00:37:29;16.30;94.90
11764;DHT22;5939;56.522;14.950;2023-05-16T00:39:55;16.30;95.00
11764;DHT22;5939;56.522;14.950;2023-05-16T00:42:21;16.20;95.00
11764;DHT22;5939;56.522;14.950;2023-05-16T00:44:47;16.20;95.40
11764;DHT22;5939;56.522;14.950;2023-05-16T00:47:13;16.20;95.00
11764;DHT22;5939;56.522;14.950;2023-05-16T00:49:40;16.20;95.00
11764;DHT22;5939;56.522;14.950;2023-05-16T00:52:06;16.20;95.10
11764;DHT22;5939;56.522;14.950;2023-05-16T00:54:32;16.20;95.00
11764;DHT22;5939;56.522;14.950;2023-05-16T00:56:58;16.20;95.10
11764;DHT22;5939;56.522;14.950;2023-05-16T00:59:24;16.10;95.10
11764;DHT22;5939;56.522;14.950;2023-05-16T01:01:50;16.10;95.10
11764;DHT22;5939;56.522;14.950;2023-05-16T01:04:17;16.10;95.10
11764;DHT22;5939;56.522;14.950;2023-05-16T01:06:44;16.10;95.10
11764;DHT22;5939;56.522;14.950;2023-05-16T01:09:10;16.10;95.10
11764;DHT22;5939;56.522;14.950;2023-05-16T01:12:10;16.10;95.10
11764;DHT22;5939;56.522;14.950;2023-05-16T01:15:12;16.00;95.10
11764;DHT22;5939;56.522;14.950;2023-05-16T01:20:48;16.00;95.10
11764;DHT22;5939;56.522;14.950;2023-05-16T01:26:17;16.00;95.10
11764;DHT22;5939;56.522;14.950;2023-05-16T01:28:44;16.00;95.20
11764;DHT22;5939;56.522;14.950;2023-05-16T01:31:11;16.00;95.20
11764;DHT22;5939;56.522;14.950;2023-05-16T01:33:37;16.00;95.20
11764;DHT22;5939;56.522;14.950;2023-05-16T01:36:06;15.90;95.20
11764;DHT22;5939;56.522;14.950;2023-05-16T01:39:29;16.00;95.30
11764;DHT22;5939;56.522;14.950;2023-05-16T01:44:19;15.90;95.30
11764;DHT22;5939;56.522;14.950;2023-05-16T01:46:48;15.90;95.30
11764;DHT22;5939;56.522;14.950;2023-05-16T01:52:24;15.90;95.40
11764;DHT22;5939;56.522;14.950;2023-05-16T01:54:53;15.90;95.40
11764;DHT22;5939;56.522;14.950;2023-05-16T01:57:25;15.80;95.50
11764;DHT22;5939;56.522;14.950;2023-05-16T01:59:51;15.90;95.40
11764;DHT22;5939;56.522;14.950;2023-05-16T02:02:18;15.90;95.40
11764;DHT22;5939;56.522;14.950;2023-05-16T02:04:44;15.80;95.40
11764;DHT22;5939;56.522;14.950;2023-05-16T02:07:09;15.80;95.50
11764;DHT22;5939;56.522;14.950;2023-05-16T02:09:36;15.80;95.50
11764;DHT22;5939;56.522;14.950;2023-05-16T02:12:01;15.80;95.60
11764;DHT22;5939;56.522;14.950;2023-05-16T02:14:27;15.80;95.60
11764;DHT22;5939;56.522;14.950;2023-05-16T02:16:53;15.80;95.60
11764;DHT22;5939;56.522;14.950;2023-05-16T02:19:19;15.80;95.70
11764;DHT22;5939;56.522;14.950;2023-05-16T02:21:45;15.80;95.70
11764;DHT22;5939;56.522;14.950;2023-05-16T02:24:10;15.70;95.60
11764;DHT22;5939;56.522;14.950;2023-05-16T02:26:36;15.70;95.70
11764;DHT22;5939;56.522;14.950;2023-05-16T02:29:02;15.70;95.70
11764;DHT22;5939;56.522;14.950;2023-05-16T02:31:29;15.70;95.70
11764;DHT22;5939;56.522;14.950;2023-05-16T02:33:56;15.70;95.80
11764;DHT22;5939;56.522;14.950;2023-05-16T02:36:22;15.70;95.70
11764;DHT22;5939;56.522;14.950;2023-05-16T02:38:48;15.60;95.80
11764;DHT22;5939;56.522;14.950;2023-05-16T02:41:14;15.70;95.80
11764;DHT22;5939;56.522;14.950;2023-05-16T02:43:39;15.60;95.80
11764;DHT22;5939;56.522;14.950;2023-05-16T02:46:28;15.70;95.80
11764;DHT22;5939;56.522;14.950;2023-05-16T02:48:57;15.60;95.90
11764;DHT22;5939;56.522;14.950;2023-05-16T02:51:25;15.60;95.90
11764;DHT22;5939;56.522;14.950;2023-05-16T02:53:52;15.60;95.90
11764;DHT22;5939;56.522;14.950;2023-05-16T02:56:18;15.60;96.00
11764;DHT22;5939;56.522;14.950;2023-05-16T02:58:46;15.60;96.00
11764;DHT22;5939;56.522;14.950;2023-05-16T03:01:13;15.60;96.00
11764;DHT22;5939;56.522;14.950;2023-05-16T03:03:38;15.60;96.00
11764;DHT22;5939;56.522;14.950;2023-05-16T03:06:04;15.60;96.00
11764;DHT22;5939;56.522;14.950;2023-05-16T03:08:30;15.60;96.10
11764;DHT22;5939;56.522;14.950;2023-05-16T03:10:56;15.50;96.00
11764;DHT22;5939;56.522;14.950;2023-05-16T03:13:22;15.50;96.10
11764;DHT22;5939;56.522;14.950;2023-05-16T03:15:48;15.60;96.10
11764;DHT22;5939;56.522;14.950;2023-05-16T03:18:14;15.50;96.10
11764;DHT22;5939;56.522;14.950;2023-05-16T03:20:39;15.50;96.10
11764;DHT22;5939;56.522;14.950;2023-05-16T03:23:05;15.50;96.10
11764;DHT22;5939;56.522;14.950;2023-05-16T03:25:33;15.50;96.10
11764;DHT22;5939;56.522;14.950;2023-05-16T03:28:01;15.50;96.10
11764;DHT22;5939;56.522;14.950;2023-05-16T03:30:26;15.50;96.10
11764;DHT22;5939;56.522;14.950;2023-05-16T03:32:52;15.50;96.10
11764;DHT22;5939;56.522;14.950;2023-05-16T03:35:18;15.50;96.20
11764;DHT22;5939;56.522;14.950;2023-05-16T03:37:43;15.40;96.10
11764;DHT22;5939;56.522;14.950;2023-05-16T03:40:09;15.50;96.30
11764;DHT22;5939;56.522;14.950;2023-05-16T03:42:35;15.40;96.20
11764;DHT22;5939;56.522;14.950;2023-05-16T03:45:01;15.40;96.30
11764;DHT22;5939;56.522;14.950;2023-05-16T03:47:27;15.40;96.20
11764;DHT22;5939;56.522;14.950;2023-05-16T03:49:55;15.40;96.30
11764;DHT22;5939;56.522;14.950;2023-05-16T03:52:21;15.40;96.40
11764;DHT22;5939;56.522;14.950;2023-05-16T03:54:46;15.40;96.30
11764;DHT22;5939;56.522;14.950;2023-05-16T03:57:12;15.40;96.30
11764;DHT22;5939;56.522;14.950;2023-05-16T03:59:38;15.40;96.30
11764;DHT22;5939;56.522;14.950;2023-05-16T04:02:04;15.40;96.30
11764;DHT22;5939;56.522;14.950;2023-05-16T04:04:30;15.40;96.40
11764;DHT22;5939;56.522;14.950;2023-05-16T04:06:56;15.40;96.40
11764;DHT22;5939;56.522;14.950;2023-05-16T04:09:21;15.40;96.40
11764;DHT22;5939;56.522;14.950;2023-05-16T04:11:48;15.40;96.50
11764;DHT22;5939;56.522;14.950;2023-05-16T04:14:14;15.40;96.40
11764;DHT22;5939;56.522;14.950;2023-05-16T04:16:40;15.40;96.60
11764;DHT22;5939;56.522;14.950;2023-05-16T04:19:06;15.30;96.50
11764;DHT22;5939;56.522;14.950;2023-05-16T04:21:31;15.40;96.60
11764;DHT22;5939;56.522;14.950;2023-05-16T04:23:57;15.30;96.60
11764;DHT22;5939;56.522;14.950;2023-05-16T04:26:23;15.30;96.50
11764;DHT22;5939;56.522;14.950;2023-05-16T04:28:50;15.30;96.60
11764;DHT22;5939;56.522;14.950;2023-05-16T04:31:16;15.30;96.60
11764;DHT22;5939;56.522;14.950;2023-05-16T04:33:41;15.30;96.60
11764;DHT22;5939;56.522;14.950;2023-05-16T04:36:07;15.30;96.60
11764;DHT22;5939;56.522;14.950;2023-05-16T04:38:33;15.30;96.60
11764;DHT22;5939;56.522;14.950;2023-05-16T04:40:59;15.30;96.70
11764;DHT22;5939;56.522;14.950;2023-05-16T04:43:26;15.30;96.70
11764;DHT22;5939;56.522;14.950;2023-05-16T04:45:52;15.30;96.60
11764;DHT22;5939;56.522;14.950;2023-05-16T04:48:23;15.30;96.60
11764;DHT22;5939;56.522;14.950;2023-05-16T04:50:48;15.30;96.60
11764;DHT22;5939;56.522;14.950;2023-05-16T04:53:14;15.30;96.60
11764;DHT22;5939;56.522;14.950;2023-05-16T04:55:40;15.30;96.60
11764;DHT22;5939;56.522;14.950;2023-05-16T04:58:05;15.30;96.60
11764;DHT22;5939;56.522;14.950;2023-05-16T05:00:32;15.20;96.60
11764;DHT22;5939;56.522;14.950;2023-05-16T05:02:58;15.20;96.60
11764;DHT22;5939;56.522;14.950;2023-05-16T05:05:23;15.20;96.60
11764;DHT22;5939;56.522;14.950;2023-05-16T05:07:49;15.20;96.50
11764;DHT22;5939;56.522;14.950;2023-05-16T05:10:15;15.20;96.60
11764;DHT22;5939;56.522;14.950;2023-05-16T05:12:40;15.20;96.60
11764;DHT22;5939;56.522;14.950;2023-05-16T05:15:06;15.20;96.60
11764;DHT22;5939;56.522;14.950;2023-05-16T05:17:33;15.20;96.60
11764;DHT22;5939;56.522;14.950;2023-05-16T05:19:58;15.20;96.70
11764;DHT22;5939;56.522;14.950;2023-05-16T05:22:24;15.20;96.60
11764;DHT22;5939;56.522;14.950;2023-05-16T05:24:50;15.20;96.60
11764;DHT22;5939;56.522;14.950;2023-05-16T05:27:16;15.30;96.70
11764;DHT22;5939;56.522;14.950;2023-05-16T05:29:41;15.20;96.70
11764;DHT22;5939;56.522;14.950;2023-05-16T05:32:07;15.20;96.70
11764;DHT22;5939;56.522;14.950;2023-05-16T05:34:33;15.20;96.70
11764;DHT22;5939;56.522;14.950;2023-05-16T05:36:58;15.20;96.70
11764;DHT22;5939;56.522;14.950;2023-05-16T05:39:24;15.20;96.80
11764;DHT22;5939;56.522;14.950;2023-05-16T05:41:50;15.30;96.70
11764;DHT22;5939;56.522;14.950;2023-05-16T05:44:16;15.30;96.80
11764;DHT22;5939;56.522;14.950;2023-05-16T05:46:42;15.20;96.80
11764;DHT22;5939;56.522;14.950;2023-05-16T05:49:08;15.20;96.80
11764;DHT22;5939;56.522;14.950;2023-05-16T05:51:33;15.20;96.80
11764;DHT22;5939;56.522;14.950;2023-05-16T05:53:59;15.20;96.80
11764;DHT22;5939;56.522;14.950;2023-05-16T05:56:25;15.20;96.80
11764;DHT22;5939;56.522;14.950;2023-05-16T05:58:51;15.20;96.70
11764;DHT22;5939;56.522;14.950;2023-05-16T06:01:16;15.20;96.70
11764;DHT22;5939;56.522;14.950;2023-05-16T06:03:42;15.20;96.70
11764;DHT22;5939;56.522;14.950;2023-05-16T06:06:08;15.30;96.80
11764;DHT22;5939;56.522;14.950;2023-05-16T06:08:34;15.20;96.70
11764;DHT22;5939;56.522;14.950;2023-05-16T06:11:00;15.30;96.70
11764;DHT22;5939;56.522;14.950;2023-05-16T06:13:26;15.30;96.70
11764;DHT22;5939;56.522;14.950;2023-05-16T06:15:52;15.30;96.80
11764;DHT22;5939;56.522;14.950;2023-05-16T06:18:19;15.30;96.70
11764;DHT22;5939;56.522;14.950;2023-05-16T06:20:45;15.30;96.80
11764;DHT22;5939;56.522;14.950;2023-05-16T06:23:10;15.30;96.70
11764;DHT22;5939;56.522;14.950;2023-05-16T06:25:36;15.30;96.80
11764;DHT22;5939;56.522;14.950;2023-05-16T06:28:02;15.30;96.70
11764;DHT22;5939;56.522;14.950;2023-05-16T06:30:27;15.30;96.70
11764;DHT22;5939;56.522;14.950;2023-05-16T06:32:53;15.30;96.70
11764;DHT22;5939;56.522;14.950;2023-05-16T06:35:19;15.30;96.80
11764;DHT22;5939;56.522;14.950;2023-05-16T06:37:45;15.30;96.80
11764;DHT22;5939;56.522;14.950;2023-05-16T06:40:11;15.30;96.70
11764;DHT22;5939;56.522;14.950;2023-05-16T06:42:36;15.30;96.70
11764;DHT22;5939;56.522;14.950;2023-05-16T06:45:02;15.30;96.60
11764;DHT22;5939;56.522;14.950;2023-05-16T06:47:28;15.30;96.70
11764;DHT22;5939;56.522;14.950;2023-05-16T06:49:54;15.30;96.60
11764;DHT22;5939;56.522;14.950;2023-05-16T06:52:20;15.30;96.70
11764;DHT22;5939;56.522;14.950;2023-05-16T06:54:46;15.30;96.80
11764;DHT22;5939;56.522;14.950;2023-05-16T06:57:12;15.30;96.70
11764;DHT22;5939;56.522;14.950;2023-05-16T06:59:38;15.30;96.70
11764;DHT22;5939;56.522;14.950;2023-05-16T07:02:04;15.30;97.00
11764;DHT22;5939;56.522;14.950;2023-05-16T07:04:29;15.40;96.90
11764;DHT22;5939;56.522;14.950;2023-05-16T07:06:55;15.40;97.00
11764;DHT22;5939;56.522;14.950;2023-05-16T07:09:21;15.40;97.10
11764;DHT22;5939;56.522;14.950;2023-05-16T07:11:47;15.40;97.20
11764;DHT22;5939;56.522;14.950;2023-05-16T07:14:12;15.40;97.30
11764;DHT22;5939;56.522;14.950;2023-05-16T07:16:38;15.40;97.50
11764;DHT22;5939;56.522;14.950;2023-05-16T07:19:04;15.40;97.40
11764;DHT22;5939;56.522;14.950;2023-05-16T07:21:29;15.40;97.40
11764;DHT22;5939;56.522;14.950;2023-05-16T07:23:56;15.50;97.40
11764;DHT22;5939;56.522;14.950;2023-05-16T07:26:21;15.50;97.40
11764;DHT22;5939;56.522;14.950;2023-05-16T07:28:51;15.50;97.30
11764;DHT22;5939;56.522;14.950;2023-05-16T07:31:17;15.50;97.40
11764;DHT22;5939;56.522;14.950;2023-05-16T07:33:43;15.50;97.60
11764;DHT22;5939;56.522;14.950;2023-05-16T07:36:11;15.50;97.70
11764;DHT22;5939;56.522;14.950;2023-05-16T07:38:37;15.60;97.80
11764;DHT22;5939;56.522;14.950;2023-05-16T07:41:03;15.60;97.80
11764;DHT22;5939;56.522;14.950;2023-05-16T07:43:28;15.60;97.70
11764;DHT22;5939;56.522;14.950;2023-05-16T07:45:54;15.60;97.60
11764;DHT22;5939;56.522;14.950;2023-05-16T07:48:20;15.60;97.60
11764;DHT22;5939;56.522;14.950;2023-05-16T07:50:46;15.70;97.70
11764;DHT22;5939;56.522;14.950;2023-05-16T07:53:11;15.70;97.70
11764;DHT22;5939;56.522;14.950;2023-05-16T07:55:37;15.70;97.70
11764;DHT22;5939;56.522;14.950;2023-05-16T07:58:03;15.80;98.00
11764;DHT22;5939;56.522;14.950;2023-05-16T08:00:28;15.80;97.90
11764;DHT22;5939;56.522;14.950;2023-05-16T08:02:55;15.80;98.10
11764;DHT22;5939;56.522;14.950;2023-05-16T08:05:21;15.80;98.00
11764;DHT22;5939;56.522;14.950;2023-05-16T08:07:47;15.90;98.10
11764;DHT22;5939;56.522;14.950;2023-05-16T08:10:13;15.90;98.10
11764;DHT22;5939;56.522;14.950;2023-05-16T08:12:38;15.90;98.00
11764;DHT22;5939;56.522;14.950;2023-05-16T08:15:05;16.00;97.90
11764;DHT22;5939;56.522;14.950;2023-05-16T08:17:30;16.00;97.80
11764;DHT22;5939;56.522;14.950;2023-05-16T08:19:56;16.00;97.80
11764;DHT22;5939;56.522;14.950;2023-05-16T08:22:24;16.00;97.80
11764;DHT22;5939;56.522;14.950;2023-05-16T08:24:50;16.00;97.70
11764;DHT22;5939;56.522;14.950;2023-05-16T08:27:15;16.00;97.60
11764;DHT22;5939;56.522;14.950;2023-05-16T08:29:41;16.10;97.60
11764;DHT22;5939;56.522;14.950;2023-05-16T08:32:08;16.10;97.60
11764;DHT22;5939;56.522;14.950;2023-05-16T08:34:34;16.10;97.50
11764;DHT22;5939;56.522;14.950;2023-05-16T08:37:01;16.10;97.50
11764;DHT22;5939;56.522;14.950;2023-05-16T08:39:26;16.10;97.50
11764;DHT22;5939;56.522;14.950;2023-05-16T08:41:53;16.10;97.50
11764;DHT22;5939;56.522;14.950;2023-05-16T08:44:18;16.20;97.40
11764;DHT22;5939;56.522;14.950;2023-05-16T08:46:52;16.20;97.50
11764;DHT22;5939;56.522;14.950;2023-05-16T08:49:19;16.20;97.50
11764;DHT22;5939;56.522;14.950;2023-05-16T08:51:46;16.20;97.40
11764;DHT22;5939;56.522;14.950;2023-05-16T08:54:13;16.30;97.40
11764;DHT22;5939;56.522;14.950;2023-05-16T08:56:41;16.30;97.40
11764;DHT22;5939;56.522;14.950;2023-05-16T08:59:07;16.30;97.30
11764;DHT22;5939;56.522;14.950;2023-05-16T09:01:33;16.30;97.40
11764;DHT22;5939;56.522;14.950;2023-05-16T09:03:59;16.30;97.30
11764;DHT22;5939;56.522;14.950;2023-05-16T09:06:26;16.40;97.40
11764;DHT22;5939;56.522;14.950;2023-05-16T09:08:53;16.40;97.50
11764;DHT22;5939;56.522;14.950;2023-05-16T09:11:19;16.40;97.60
11764;DHT22;5939;56.522;14.950;2023-05-16T09:13:46;16.40;97.60
11764;DHT22;5939;56.522;14.950;2023-05-16T09:18:42;16.40;97.60
11764;DHT22;5939;56.522;14.950;2023-05-16T09:21:09;16.50;97.70
11764;DHT22;5939;56.522;14.950;2023-05-16T09:23:35;16.50;97.60
11764;DHT22;5939;56.522;14.950;2023-05-16T09:26:02;16.50;97.90
11764;DHT22;5939;56.522;14.950;2023-05-16T09:28:30;16.60;98.20
11764;DHT22;5939;56.522;14.950;2023-05-16T09:30:56;16.60;98.30
11764;DHT22;5939;56.522;14.950;2023-05-16T09:33:26;16.60;98.30
11764;DHT22;5939;56.522;14.950;2023-05-16T09:35:59;16.70;98.30
11764;DHT22;5939;56.522;14.950;2023-05-16T09:38:26;16.70;98.50
11764;DHT22;5939;56.522;14.950;2023-05-16T09:40:53;16.70;98.90
11764;DHT22;5939;56.522;14.950;2023-05-16T09:43:24;16.80;99.20
11764;DHT22;5939;56.522;14.950;2023-05-16T09:45:50;16.80;99.30
11764;DHT22;5939;56.522;14.950;2023-05-16T09:48:16;16.90;99.50
11764;DHT22;5939;56.522;14.950;2023-05-16T09:50:52;17.00;99.60
11764;DHT22;5939;56.522;14.950;2023-05-16T09:53:26;17.00;99.40
11764;DHT22;5939;56.522;14.950;2023-05-16T09:56:01;17.10;99.40
11764;DHT22;5939;56.522;14.950;2023-05-16T09:58:28;17.20;99.20
11764;DHT22;5939;56.522;14.950;2023-05-16T10:00:55;17.20;99.20
11764;DHT22;5939;56.522;14.950;2023-05-16T10:03:22;17.30;99.40
11764;DHT22;5939;56.522;14.950;2023-05-16T10:05:49;17.30;99.20
11764;DHT22;5939;56.522;14.950;2023-05-16T10:08:15;17.40;99.10
11764;DHT22;5939;56.522;14.950;2023-05-16T10:10:41;17.50;98.90
11764;DHT22;5939;56.522;14.950;2023-05-16T10:13:07;17.50;98.90
11764;DHT22;5939;56.522;14.950;2023-05-16T10:15:36;17.60;99.00
11764;DHT22;5939;56.522;14.950;2023-05-16T10:18:02;17.60;99.20
11764;DHT22;5939;56.522;14.950;2023-05-16T10:20:29;17.70;99.20
11764;DHT22;5939;56.522;14.950;2023-05-16T10:22:57;17.70;99.10
11764;DHT22;5939;56.522;14.950;2023-05-16T10:25:34;17.80;99.20
11764;DHT22;5939;56.522;14.950;2023-05-16T10:28:01;17.90;99.50
11764;DHT22;5939;56.522;14.950;2023-05-16T10:30:27;18.00;99.60
11764;DHT22;5939;56.522;14.950;2023-05-16T10:32:54;18.10;99.80
11764;DHT22;5939;56.522;14.950;2023-05-16T10:35:20;18.10;99.60
11764;DHT22;5939;56.522;14.950;2023-05-16T10:37:48;18.20;99.40
11764;DHT22;5939;56.522;14.950;2023-05-16T10:40:14;18.30;99.30
11764;DHT22;5939;56.522;14.950;2023-05-16T10:42:53;18.30;99.10
11764;DHT22;5939;56.522;14.950;2023-05-16T10:45:19;18.40;99.00
11764;DHT22;5939;56.522;14.950;2023-05-16T10:47:56;18.40;98.80
11764;DHT22;5939;56.522;14.950;2023-05-16T10:55:39;18.50;98.40
11764;DHT22;5939;56.522;14.950;2023-05-16T10:58:04;18.50;98.30
11764;DHT22;5939;56.522;14.950;2023-05-16T11:00:30;18.60;98.30
11764;DHT22;5939;56.522;14.950;2023-05-16T11:03:05;18.60;98.10
11764;DHT22;5939;56.522;14.950;2023-05-16T11:05:52;18.60;98.10
11764;DHT22;5939;56.522;14.950;2023-05-16T11:08:18;18.60;98.10
11764;DHT22;5939;56.522;14.950;2023-05-16T11:10:44;18.70;98.00
11764;DHT22;5939;56.522;14.950;2023-05-16T11:13:09;18.70;98.00
11764;DHT22;5939;56.522;14.950;2023-05-16T11:15:36;18.70;98.00
11764;DHT22;5939;56.522;14.950;2023-05-16T11:18:14;18.70;98.10
11764;DHT22;5939;56.522;14.950;2023-05-16T11:20:40;18.80;98.00
11764;DHT22;5939;56.522;14.950;2023-05-16T11:23:23;18.80;98.00
11764;DHT22;5939;56.522;14.950;2023-05-16T11:25:55;18.80;98.00
11764;DHT22;5939;56.522;14.950;2023-05-16T11:28:22;18.80;97.90
11764;DHT22;5939;56.522;14.950;2023-05-16T11:30:53;18.90;97.90
11764;DHT22;5939;56.522;14.950;2023-05-16T11:33:21;18.90;98.00
11764;DHT22;5939;56.522;14.950;2023-05-16T11:36:03;19.00;97.90
11764;DHT22;5939;56.522;14.950;2023-05-16T11:38:30;18.90;97.90
11764;DHT22;5939;56.522;14.950;2023-05-16T11:41:06;19.00;97.80
11764;DHT22;5939;56.522;14.950;2023-05-16T11:43:43;19.00;97.80
11764;DHT22;5939;56.522;14.950;2023-05-16T11:46:13;19.00;97.80
11764;DHT22;5939;56.522;14.950;2023-05-16T11:48:39;19.00;97.70
11764;DHT22;5939;56.522;14.950;2023-05-16T11:51:05;19.10;97.70
11764;DHT22;5939;56.522;14.950;2023-05-16T11:53:32;19.10;97.80
11764;DHT22;5939;56.522;14.950;2023-05-16T11:55:58;19.10;97.80
11764;DHT22;5939;56.522;14.950;2023-05-16T11:58:26;19.10;97.80
11764;DHT22;5939;56.522;14.950;2023-05-16T12:00:52;19.10;97.80
11764;DHT22;5939;56.522;14.950;2023-05-16T12:03:18;19.10;97.70
11764;DHT22;5939;56.522;14.950;2023-05-16T12:05:54;19.20;97.80
11764;DHT22;5939;56.522;14.950;2023-05-16T12:08:22;19.20;97.80
11764;DHT22;5939;56.522;14.950;2023-05-16T12:10:50;19.20;97.70
11764;DHT22;5939;56.522;14.950;2023-05-16T12:13:17;19.20;97.70
11764;DHT22;5939;56.522;14.950;2023-05-16T12:15:43;19.30;97.70
11764;DHT22;5939;56.522;14.950;2023-05-16T12:18:09;19.30;97.60
11764;DHT22;5939;56.522;14.950;2023-05-16T12:20:35;19.30;97.60
11764;DHT22;5939;56.522;14.950;2023-05-16T12:23:01;19.30;97.60
11764;DHT22;5939;56.522;14.950;2023-05-16T12:25:33;19.30;97.50
11764;DHT22;5939;56.522;14.950;2023-05-16T12:28:03;19.30;97.50
11764;DHT22;5939;56.522;14.950;2023-05-16T12:30:31;19.30;97.40
11764;DHT22;5939;56.522;14.950;2023-05-16T12:33:01;19.30;97.40
11764;DHT22;5939;56.522;14.950;2023-05-16T12:35:31;19.30;97.50
11764;DHT22;5939;56.522;14.950;2023-05-16T12:37:58;19.40;97.60
11764;DHT22;5939;56.522;14.950;2023-05-16T12:40:27;19.40;97.60
11764;DHT22;5939;56.522;14.950;2023-05-16T12:42:54;19.40;97.60
11764;DHT22;5939;56.522;14.950;2023-05-16T12:45:21;19.40;97.70
11764;DHT22;5939;56.522;14.950;2023-05-16T12:47:48;19.40;97.60
11764;DHT22;5939;56.522;14.950;2023-05-16T12:50:14;19.50;97.70
11764;DHT22;5939;56.522;14.950;2023-05-16T12:52:52;19.50;97.70
11764;DHT22;5939;56.522;14.950;2023-05-16T12:55:21;19.50;97.70
11764;DHT22;5939;56.522;14.950;2023-05-16T12:57:48;19.50;97.60
11764;DHT22;5939;56.522;14.950;2023-05-16T13:00:16;19.50;97.50
11764;DHT22;5939;56.522;14.950;2023-05-16T13:02:44;19.50;97.50
11764;DHT22;5939;56.522;14.950;2023-05-16T13:05:10;19.60;97.50
11764;DHT22;5939;56.522;14.950;2023-05-16T13:07:36;19.60;97.50
11764;DHT22;5939;56.522;14.950;2023-05-16T13:10:04;19.60;97.40
11764;DHT22;5939;56.522;14.950;2023-05-16T13:12:30;19.60;97.50
11764;DHT22;5939;56.522;14.950;2023-05-16T13:14:56;19.60;97.50
11764;DHT22;5939;56.522;14.950;2023-05-16T13:17:22;19.60;97.60
11764;DHT22;5939;56.522;14.950;2023-05-16T13:19:50;19.60;97.60
11764;DHT22;5939;56.522;14.950;2023-05-16T13:22:16;19.70;97.60
11764;DHT22;5939;56.522;14.950;2023-05-16T13:24:42;19.60;97.50
11764;DHT22;5939;56.522;14.950;2023-05-16T13:27:08;19.60;97.40
11764;DHT22;5939;56.522;14.950;2023-05-16T13:29:33;19.70;97.50
11764;DHT22;5939;56.522;14.950;2023-05-16T13:31:59;19.60;97.40
11764;DHT22;5939;56.522;14.950;2023-05-16T13:34:24;19.70;97.40
11764;DHT22;5939;56.522;14.950;2023-05-16T13:36:50;19.70;97.40
11764;DHT22;5939;56.522;14.950;2023-05-16T13:39:16;19.70;97.40
11764;DHT22;5939;56.522;14.950;2023-05-16T13:41:42;19.70;97.70
11764;DHT22;5939;56.522;14.950;2023-05-16T13:44:08;19.70;97.30
11764;DHT22;5939;56.522;14.950;2023-05-16T13:46:34;19.70;97.30
11764;DHT22;5939;56.522;14.950;2023-05-16T13:49:00;19.70;97.30
11764;DHT22;5939;56.522;14.950;2023-05-16T13:51:26;19.70;97.20
11764;DHT22;5939;56.522;14.950;2023-05-16T13:53:51;19.70;97.20
11764;DHT22;5939;56.522;14.950;2023-05-16T13:56:17;19.70;97.10
11764;DHT22;5939;56.522;14.950;2023-05-16T13:58:43;19.70;97.10
11764;DHT22;5939;56.522;14.950;2023-05-16T14:01:08;19.70;97.10
11764;DHT22;5939;56.522;14.950;2023-05-16T14:03:34;19.70;97.10
11764;DHT22;5939;56.522;14.950;2023-05-16T14:06:03;19.70;97.00
11764;DHT22;5939;56.522;14.950;2023-05-16T14:08:29;19.70;97.00
11764;DHT22;5939;56.522;14.950;2023-05-16T14:10:54;19.70;97.00
11764;DHT22;5939;56.522;14.950;2023-05-16T14:13:20;19.70;97.00
11764;DHT22;5939;56.522;14.950;2023-05-16T14:15:46;19.70;97.00
11764;DHT22;5939;56.522;14.950;2023-05-16T14:18:11;19.70;97.00
11764;DHT22;5939;56.522;14.950;2023-05-16T14:20:38;19.60;96.90
11764;DHT22;5939;56.522;14.950;2023-05-16T14:23:04;19.70;96.90
11764;DHT22;5939;56.522;14.950;2023-05-16T14:25:29;19.60;96.90
11764;DHT22;5939;56.522;14.950;2023-05-16T14:27:55;19.70;96.90
11764;DHT22;5939;56.522;14.950;2023-05-16T14:30:21;19.60;96.90
11764;DHT22;5939;56.522;14.950;2023-05-16T14:32:46;19.70;96.90
11764;DHT22;5939;56.522;14.950;2023-05-16T14:35:12;19.60;96.90
11764;DHT22;5939;56.522;14.950;2023-05-16T14:37:37;19.60;96.90
11764;DHT22;5939;56.522;14.950;2023-05-16T14:40:03;19.60;96.90
11764;DHT22;5939;56.522;14.950;2023-05-16T14:42:30;19.60;96.90
11764;DHT22;5939;56.522;14.950;2023-05-16T14:44:56;19.60;96.90
11764;DHT22;5939;56.522;14.950;2023-05-16T14:47:22;19.60;96.90
11764;DHT22;5939;56.522;14.950;2023-05-16T14:49:48;19.60;96.90
11764;DHT22;5939;56.522;14.950;2023-05-16T14:52:14;19.60;97.20
11764;DHT22;5939;56.522;14.950;2023-05-16T14:54:40;19.60;96.80
11764;DHT22;5939;56.522;14.950;2023-05-16T14:57:05;19.60;96.80
11764;DHT22;5939;56.522;14.950;2023-05-16T14:59:31;19.50;96.80
11764;DHT22;5939;56.522;14.950;2023-05-16T15:01:57;19.50;96.80
11764;DHT22;5939;56.522;14.950;2023-05-16T15:04:23;19.50;96.80
11764;DHT22;5939;56.522;14.950;2023-05-16T15:06:49;19.50;96.80
11764;DHT22;5939;56.522;14.950;2023-05-16T15:09:14;19.50;96.70
11764;DHT22;5939;56.522;14.950;2023-05-16T15:11:40;19.50;96.70
11764;DHT22;5939;56.522;14.950;2023-05-16T15:14:06;19.50;96.70
11764;DHT22;5939;56.522;14.950;2023-05-16T15:16:32;19.50;96.70
11764;DHT22;5939;56.522;14.950;2023-05-16T15:18:57;19.40;96.60
11764;DHT22;5939;56.522;14.950;2023-05-16T15:21:23;19.40;96.60
11764;DHT22;5939;56.522;14.950;2023-05-16T15:23:48;19.40;96.60
11764;DHT22;5939;56.522;14.950;2023-05-16T15:26:16;19.40;96.60
11764;DHT22;5939;56.522;14.950;2023-05-16T15:28:41;19.40;96.60
11764;DHT22;5939;56.522;14.950;2023-05-16T15:31:07;19.40;96.60
11764;DHT22;5939;56.522;14.950;2023-05-16T15:33:33;19.30;96.90
11764;DHT22;5939;56.522;14.950;2023-05-16T15:35:58;19.30;96.50
11764;DHT22;5939;56.522;14.950;2023-05-16T15:38:24;19.30;96.50
11764;DHT22;5939;56.522;14.950;2023-05-16T15:40:50;19.30;96.50
11764;DHT22;5939;56.522;14.950;2023-05-16T15:43:16;19.30;96.50
11764;DHT22;5939;56.522;14.950;2023-05-16T15:45:45;19.30;96.50
11764;DHT22;5939;56.522;14.950;2023-05-16T15:48:11;19.30;96.50